sensor_id;sensor_type;location;lat;lon;timestamp;P1;durP1;ratioP1;P2;durP2;ratioP2
16228;SDS011;8222;51.462;12.630;2023-02-28T00:00:19;6.22;;;2.28;;
16228;SDS011;8222;51.462;12.630;2023-02-28T00:02:46;2.80;;;1.93;;
16228;SDS011;8222;51.462;12.630;2023-02-28T00:05:12;2.38;;;1.90;;
16228;SDS011;8222;51.462;12.630;2023-02-28T00:07:40;2.30;;;2.10;;
16228;SDS011;8222;51.462;12.630;2023-02-28T00:10:07;2.30;;;2.07;;
16228;SDS011;8222;51.462;12.630;2023-02-28T00:12:35;2.75;;;2.20;;
16228;SDS011;8222;51.462;12.630;2023-02-28T00:15:06;2.33;;;2.13;;
16228;SDS011;8222;51.462;12.630;2023-02-28T00:17:34;2.75;;;2.00;;
16228;SDS011;8222;51.462;12.630;2023-02-28T00:19:59;2.22;;;2.03;;
16228;SDS011;8222;51.462;12.630;2023-02-28T00:22:40;2.03;;;1.80;;
16228;SDS011;8222;51.462;12.630;2023-02-28T00:25:08;2.33;;;2.13;;
16228;SDS011;8222;51.462;12.630;2023-02-28T00:27:36;1.98;;;1.75;;
16228;SDS011;8222;51.462;12.630;2023-02-28T00:30:03;2.00;;;1.75;;
16228;SDS011;8222;51.462;12.630;2023-02-28T00:32:30;2.22;;;1.95;;
16228;SDS011;8222;51.462;12.630;2023-02-28T00:34:56;2.47;;;2.10;;
16228;SDS011;8222;51.462;12.630;2023-02-28T00:37:21;2.43;;;1.80;;
16228;SDS011;8222;51.462;12.630;2023-02-28T00:39:47;3.07;;;2.50;;
16228;SDS011;8222;51.462;12.630;2023-02-28T00:42:13;2.70;;;1.70;;
16228;SDS011;8222;51.462;12.630;2023-02-28T00:44:41;2.90;;;2.30;;
16228;SDS011;8222;51.462;12.630;2023-02-28T00:47:06;3.63;;;2.00;;
16228;SDS011;8222;51.462;12.630;2023-02-28T00:49:32;2.60;;;2.07;;
16228;SDS011;8222;51.462;12.630;2023-02-28T00:51:58;2.80;;;2.33;;
16228;SDS011;8222;51.462;12.630;2023-02-28T00:54:25;2.53;;;1.90;;
16228;SDS011;8222;51.462;12.630;2023-02-28T00:56:51;2.15;;;1.95;;
16228;SDS011;8222;51.462;12.630;2023-02-28T00:59:17;2.80;;;1.60;;
16228;SDS011;8222;51.462;12.630;2023-02-28T01:01:46;3.40;;;2.10;;
16228;SDS011;8222;51.462;12.630;2023-02-28T01:04:12;3.90;;;2.05;;
16228;SDS011;8222;51.462;12.630;2023-02-28T01:06:38;2.88;;;2.33;;
16228;SDS011;8222;51.462;12.630;2023-02-28T01:09:04;4.93;;;2.20;;
16228;SDS011;8222;51.462;12.630;2023-02-28T01:11:31;2.93;;;1.97;;
16228;SDS011;8222;51.462;12.630;2023-02-28T01:13:57;2.17;;;1.98;;
16228;SDS011;8222;51.462;12.630;2023-02-28T01:16:23;2.70;;;2.08;;
16228;SDS011;8222;51.462;12.630;2023-02-28T01:18:49;2.00;;;1.90;;
16228;SDS011;8222;51.462;12.630;2023-02-28T01:21:17;3.03;;;2.30;;
16228;SDS011;8222;51.462;12.630;2023-02-28T01:23:45;2.45;;;1.92;;
16228;SDS011;8222;51.462;12.630;2023-02-28T01:26:12;4.78;;;1.92;;
16228;SDS011;8222;51.462;12.630;2023-02-28T01:28:40;3.05;;;2.22;;
16228;SDS011;8222;51.462;12.630;2023-02-28T01:31:07;3.10;;;2.37;;
16228;SDS011;8222;51.462;12.630;2023-02-28T01:33:34;2.28;;;1.98;;
16228;SDS011;8222;51.462;12.630;2023-02-28T01:38:29;2.20;;;2.00;;
16228;SDS011;8222;51.462;12.630;2023-02-28T01:40:55;3.17;;;2.80;;
16228;SDS011;8222;51.462;12.630;2023-02-28T01:43:25;3.25;;;2.05;;
16228;SDS011;8222;51.462;12.630;2023-02-28T01:45:56;2.42;;;2.22;;
16228;SDS011;8222;51.462;12.630;2023-02-28T01:48:32;2.67;;;2.47;;
16228;SDS011;8222;51.462;12.630;2023-02-28T01:51:01;2.63;;;2.42;;
16228;SDS011;8222;51.462;12.630;2023-02-28T01:53:39;3.03;;;2.72;;
16228;SDS011;8222;51.462;12.630;2023-02-28T01:56:09;2.40;;;2.20;;
16228;SDS011;8222;51.462;12.630;2023-02-28T01:58:38;3.10;;;2.40;;
16228;SDS011;8222;51.462;12.630;2023-02-28T02:01:04;3.22;;;2.28;;
16228;SDS011;8222;51.462;12.630;2023-02-28T02:03:30;3.90;;;2.70;;
16228;SDS011;8222;51.462;12.630;2023-02-28T02:05:56;4.68;;;2.97;;
16228;SDS011;8222;51.462;12.630;2023-02-28T02:08:23;3.78;;;2.85;;
16228;SDS011;8222;51.462;12.630;2023-02-28T02:10:52;4.18;;;3.05;;
16228;SDS011;8222;51.462;12.630;2023-02-28T02:22:35;2.70;;;2.50;;
16228;SDS011;8222;51.462;12.630;2023-02-28T02:25:28;3.60;;;2.78;;
16228;SDS011;8222;51.462;12.630;2023-02-28T02:37:19;4.53;;;3.00;;
16228;SDS011;8222;51.462;12.630;2023-02-28T02:39:57;3.83;;;3.25;;
16228;SDS011;8222;51.462;12.630;2023-02-28T02:42:45;4.97;;;3.25;;
16228;SDS011;8222;51.462;12.630;2023-02-28T02:45:36;3.05;;;2.75;;
16228;SDS011;8222;51.462;12.630;2023-02-28T02:48:08;3.10;;;2.80;;
16228;SDS011;8222;51.462;12.630;2023-02-28T02:50:41;2.70;;;2.47;;
16228;SDS011;8222;51.462;12.630;2023-02-28T02:53:10;3.30;;;2.57;;
16228;SDS011;8222;51.462;12.630;2023-02-28T02:55:40;4.03;;;2.78;;
16228;SDS011;8222;51.462;12.630;2023-02-28T02:58:10;3.67;;;2.93;;
16228;SDS011;8222;51.462;12.630;2023-02-28T03:00:41;3.65;;;2.85;;
16228;SDS011;8222;51.462;12.630;2023-02-28T03:03:11;3.90;;;3.17;;
16228;SDS011;8222;51.462;12.630;2023-02-28T03:05:42;3.30;;;3.00;;
16228;SDS011;8222;51.462;12.630;2023-02-28T03:08:11;3.17;;;2.87;;
16228;SDS011;8222;51.462;12.630;2023-02-28T03:10:38;3.55;;;3.10;;
16228;SDS011;8222;51.462;12.630;2023-02-28T03:24:12;4.47;;;3.42;;
16228;SDS011;8222;51.462;12.630;2023-02-28T03:26:57;3.40;;;2.90;;
16228;SDS011;8222;51.462;12.630;2023-02-28T03:32:05;4.70;;;3.47;;
16228;SDS011;8222;51.462;12.630;2023-02-28T03:34:37;3.50;;;3.20;;
16228;SDS011;8222;51.462;12.630;2023-02-28T03:37:08;4.83;;;3.90;;
16228;SDS011;8222;51.462;12.630;2023-02-28T03:39:57;4.65;;;3.45;;
16228;SDS011;8222;51.462;12.630;2023-02-28T03:42:54;5.10;;;3.55;;
16228;SDS011;8222;51.462;12.630;2023-02-28T03:45:28;4.50;;;3.38;;
16228;SDS011;8222;51.462;12.630;2023-02-28T03:50:53;3.65;;;3.25;;
16228;SDS011;8222;51.462;12.630;2023-02-28T03:56:13;5.32;;;3.25;;
16228;SDS011;8222;51.462;12.630;2023-02-28T03:58:47;3.45;;;3.05;;
16228;SDS011;8222;51.462;12.630;2023-02-28T04:03:51;4.43;;;3.78;;
16228;SDS011;8222;51.462;12.630;2023-02-28T04:06:18;4.20;;;3.70;;
16228;SDS011;8222;51.462;12.630;2023-02-28T04:08:46;4.70;;;3.63;;
16228;SDS011;8222;51.462;12.630;2023-02-28T04:11:22;4.23;;;3.70;;
16228;SDS011;8222;51.462;12.630;2023-02-28T04:14:08;4.75;;;4.25;;
16228;SDS011;8222;51.462;12.630;2023-02-28T04:16:36;4.63;;;3.58;;
16228;SDS011;8222;51.462;12.630;2023-02-28T04:19:03;5.38;;;3.88;;
16228;SDS011;8222;51.462;12.630;2023-02-28T04:21:31;4.25;;;3.85;;
16228;SDS011;8222;51.462;12.630;2023-02-28T04:23:59;4.07;;;3.67;;
16228;SDS011;8222;51.462;12.630;2023-02-28T04:26:35;4.00;;;3.60;;
16228;SDS011;8222;51.462;12.630;2023-02-28T04:29:02;4.45;;;4.05;;
16228;SDS011;8222;51.462;12.630;2023-02-28T04:31:29;4.38;;;3.58;;
16228;SDS011;8222;51.462;12.630;2023-02-28T04:33:55;4.63;;;4.07;;
16228;SDS011;8222;51.462;12.630;2023-02-28T04:36:21;5.40;;;3.70;;
16228;SDS011;8222;51.462;12.630;2023-02-28T04:38:48;4.38;;;3.92;;
16228;SDS011;8222;51.462;12.630;2023-02-28T04:41:16;4.72;;;3.88;;
16228;SDS011;8222;51.462;12.630;2023-02-28T04:43:42;5.07;;;4.38;;
16228;SDS011;8222;51.462;12.630;2023-02-28T04:46:07;4.15;;;3.40;;
16228;SDS011;8222;51.462;12.630;2023-02-28T04:48:35;4.50;;;4.03;;
16228;SDS011;8222;51.462;12.630;2023-02-28T04:51:03;6.43;;;4.47;;
16228;SDS011;8222;51.462;12.630;2023-02-28T04:53:31;5.60;;;4.80;;
16228;SDS011;8222;51.462;12.630;2023-02-28T04:55:58;19.48;;;15.05;;
16228;SDS011;8222;51.462;12.630;2023-02-28T04:58:23;2.87;;;2.63;;
16228;SDS011;8222;51.462;12.630;2023-02-28T05:00:50;3.92;;;3.53;;
16228;SDS011;8222;51.462;12.630;2023-02-28T05:03:21;4.18;;;3.80;;
16228;SDS011;8222;51.462;12.630;2023-02-28T05:05:47;4.97;;;4.47;;
16228;SDS011;8222;51.462;12.630;2023-02-28T05:08:13;3.80;;;3.50;;
16228;SDS011;8222;51.462;12.630;2023-02-28T05:10:40;5.20;;;3.78;;
16228;SDS011;8222;51.462;12.630;2023-02-28T05:13:06;4.55;;;4.13;;
16228;SDS011;8222;51.462;12.630;2023-02-28T05:15:31;4.72;;;4.00;;
16228;SDS011;8222;51.462;12.630;2023-02-28T05:17:57;4.15;;;3.53;;
16228;SDS011;8222;51.462;12.630;2023-02-28T05:20:23;4.53;;;4.03;;
16228;SDS011;8222;51.462;12.630;2023-02-28T05:22:50;4.28;;;3.88;;
16228;SDS011;8222;51.462;12.630;2023-02-28T05:25:18;5.20;;;4.70;;
16228;SDS011;8222;51.462;12.630;2023-02-28T05:27:46;5.53;;;3.60;;
16228;SDS011;8222;51.462;12.630;2023-02-28T05:30:14;3.80;;;3.10;;
16228;SDS011;8222;51.462;12.630;2023-02-28T05:32:40;11.02;;;8.52;;
16228;SDS011;8222;51.462;12.630;2023-02-28T05:35:11;3.88;;;3.58;;
16228;SDS011;8222;51.462;12.630;2023-02-28T05:37:39;4.95;;;4.45;;
16228;SDS011;8222;51.462;12.630;2023-02-28T05:40:05;3.95;;;3.58;;
16228;SDS011;8222;51.462;12.630;2023-02-28T05:42:32;4.70;;;4.18;;
16228;SDS011;8222;51.462;12.630;2023-02-28T05:44:58;4.53;;;3.70;;
16228;SDS011;8222;51.462;12.630;2023-02-28T05:47:25;4.03;;;3.67;;
16228;SDS011;8222;51.462;12.630;2023-02-28T05:49:51;5.03;;;4.50;;
16228;SDS011;8222;51.462;12.630;2023-02-28T05:52:17;6.37;;;4.37;;
16228;SDS011;8222;51.462;12.630;2023-02-28T05:54:42;4.23;;;3.43;;
16228;SDS011;8222;51.462;12.630;2023-02-28T05:57:08;4.85;;;3.90;;
16228;SDS011;8222;51.462;12.630;2023-02-28T05:59:34;4.63;;;4.13;;
16228;SDS011;8222;51.462;12.630;2023-02-28T06:02:04;4.05;;;3.70;;
16228;SDS011;8222;51.462;12.630;2023-02-28T06:04:31;4.00;;;3.60;;
16228;SDS011;8222;51.462;12.630;2023-02-28T06:06:56;5.17;;;4.40;;
16228;SDS011;8222;51.462;12.630;2023-02-28T06:09:24;4.70;;;4.28;;
16228;SDS011;8222;51.462;12.630;2023-02-28T06:11:50;6.90;;;4.60;;
16228;SDS011;8222;51.462;12.630;2023-02-28T06:14:16;5.50;;;4.20;;
16228;SDS011;8222;51.462;12.630;2023-02-28T06:16:43;5.97;;;5.20;;
16228;SDS011;8222;51.462;12.630;2023-02-28T06:19:09;5.28;;;4.68;;
16228;SDS011;8222;51.462;12.630;2023-02-28T06:21:35;7.63;;;5.47;;
16228;SDS011;8222;51.462;12.630;2023-02-28T06:24:01;5.07;;;4.53;;
16228;SDS011;8222;51.462;12.630;2023-02-28T06:26:29;6.40;;;4.17;;
16228;SDS011;8222;51.462;12.630;2023-02-28T06:29:01;8.53;;;6.03;;
16228;SDS011;8222;51.462;12.630;2023-02-28T06:35:03;9.52;;;6.95;;
16228;SDS011;8222;51.462;12.630;2023-02-28T06:37:30;6.63;;;5.97;;
16228;SDS011;8222;51.462;12.630;2023-02-28T06:39:56;6.45;;;5.32;;
16228;SDS011;8222;51.462;12.630;2023-02-28T06:42:23;8.27;;;5.80;;
16228;SDS011;8222;51.462;12.630;2023-02-28T06:44:56;6.17;;;5.17;;
16228;SDS011;8222;51.462;12.630;2023-02-28T06:47:23;6.43;;;5.22;;
16228;SDS011;8222;51.462;12.630;2023-02-28T06:49:49;7.65;;;5.85;;
16228;SDS011;8222;51.462;12.630;2023-02-28T06:52:15;6.83;;;5.30;;
16228;SDS011;8222;51.462;12.630;2023-02-28T06:54:41;5.90;;;5.10;;
16228;SDS011;8222;51.462;12.630;2023-02-28T06:57:07;5.63;;;4.38;;
16228;SDS011;8222;51.462;12.630;2023-02-28T06:59:34;7.00;;;4.97;;
16228;SDS011;8222;51.462;12.630;2023-02-28T07:02:01;4.43;;;4.00;;
16228;SDS011;8222;51.462;12.630;2023-02-28T07:04:27;4.30;;;3.85;;
16228;SDS011;8222;51.462;12.630;2023-02-28T07:06:54;5.35;;;4.53;;
16228;SDS011;8222;51.462;12.630;2023-02-28T07:09:21;4.20;;;3.80;;
16228;SDS011;8222;51.462;12.630;2023-02-28T07:11:47;6.90;;;3.80;;
16228;SDS011;8222;51.462;12.630;2023-02-28T07:14:15;4.65;;;3.92;;
16228;SDS011;8222;51.462;12.630;2023-02-28T07:16:41;4.90;;;4.40;;
16228;SDS011;8222;51.462;12.630;2023-02-28T07:19:07;4.38;;;3.55;;
16228;SDS011;8222;51.462;12.630;2023-02-28T07:21:34;5.53;;;3.80;;
16228;SDS011;8222;51.462;12.630;2023-02-28T07:24:00;5.55;;;3.78;;
16228;SDS011;8222;51.462;12.630;2023-02-28T07:26:25;5.37;;;4.20;;
16228;SDS011;8222;51.462;12.630;2023-02-28T07:28:53;4.68;;;4.05;;
16228;SDS011;8222;51.462;12.630;2023-02-28T07:31:19;7.63;;;6.57;;
16228;SDS011;8222;51.462;12.630;2023-02-28T07:33:45;9.20;;;7.55;;
16228;SDS011;8222;51.462;12.630;2023-02-28T07:36:12;9.00;;;7.20;;
16228;SDS011;8222;51.462;12.630;2023-02-28T07:38:40;7.38;;;6.35;;
16228;SDS011;8222;51.462;12.630;2023-02-28T07:41:07;9.85;;;7.07;;
16228;SDS011;8222;51.462;12.630;2023-02-28T07:43:35;8.93;;;6.65;;
16228;SDS011;8222;51.462;12.630;2023-02-28T07:46:05;9.50;;;6.03;;
16228;SDS011;8222;51.462;12.630;2023-02-28T07:48:33;7.82;;;5.97;;
16228;SDS011;8222;51.462;12.630;2023-02-28T07:50:59;5.88;;;5.28;;
16228;SDS011;8222;51.462;12.630;2023-02-28T07:53:25;7.50;;;5.57;;
16228;SDS011;8222;51.462;12.630;2023-02-28T07:55:58;6.82;;;5.38;;
16228;SDS011;8222;51.462;12.630;2023-02-28T07:58:26;5.63;;;5.05;;
16228;SDS011;8222;51.462;12.630;2023-02-28T08:00:52;5.85;;;5.10;;
16228;SDS011;8222;51.462;12.630;2023-02-28T08:03:20;6.90;;;5.22;;
16228;SDS011;8222;51.462;12.630;2023-02-28T08:05:47;5.93;;;4.75;;
16228;SDS011;8222;51.462;12.630;2023-02-28T08:08:14;5.60;;;4.20;;
16228;SDS011;8222;51.462;12.630;2023-02-28T08:10:41;5.55;;;4.63;;
16228;SDS011;8222;51.462;12.630;2023-02-28T08:13:07;5.90;;;4.55;;
16228;SDS011;8222;51.462;12.630;2023-02-28T08:15:34;6.70;;;4.40;;
16228;SDS011;8222;51.462;12.630;2023-02-28T08:18:01;4.65;;;3.65;;
16228;SDS011;8222;51.462;12.630;2023-02-28T08:20:27;5.88;;;4.13;;
16228;SDS011;8222;51.462;12.630;2023-02-28T08:22:52;4.73;;;4.30;;
16228;SDS011;8222;51.462;12.630;2023-02-28T08:25:18;6.47;;;4.80;;
16228;SDS011;8222;51.462;12.630;2023-02-28T08:27:46;5.63;;;4.50;;
16228;SDS011;8222;51.462;12.630;2023-02-28T08:30:12;5.07;;;4.10;;
16228;SDS011;8222;51.462;12.630;2023-02-28T08:32:39;4.57;;;3.97;;
16228;SDS011;8222;51.462;12.630;2023-02-28T08:35:05;4.80;;;4.30;;
16228;SDS011;8222;51.462;12.630;2023-02-28T08:37:34;4.25;;;3.72;;
16228;SDS011;8222;51.462;12.630;2023-02-28T08:40:00;3.50;;;3.15;;
16228;SDS011;8222;51.462;12.630;2023-02-28T08:42:26;4.07;;;3.67;;
16228;SDS011;8222;51.462;12.630;2023-02-28T08:44:51;5.40;;;3.90;;
16228;SDS011;8222;51.462;12.630;2023-02-28T08:47:19;4.78;;;3.15;;
16228;SDS011;8222;51.462;12.630;2023-02-28T08:49:45;5.88;;;3.22;;
16228;SDS011;8222;51.462;12.630;2023-02-28T08:52:11;6.82;;;3.45;;
16228;SDS011;8222;51.462;12.630;2023-02-28T08:54:36;3.73;;;3.43;;
16228;SDS011;8222;51.462;12.630;2023-02-28T08:57:02;5.13;;;3.93;;
16228;SDS011;8222;51.462;12.630;2023-02-28T08:59:28;4.55;;;4.13;;
16228;SDS011;8222;51.462;12.630;2023-02-28T09:01:54;3.95;;;3.53;;
16228;SDS011;8222;51.462;12.630;2023-02-28T09:04:20;4.50;;;3.30;;
16228;SDS011;8222;51.462;12.630;2023-02-28T09:06:45;4.90;;;4.40;;
16228;SDS011;8222;51.462;12.630;2023-02-28T09:09:13;4.60;;;4.10;;
16228;SDS011;8222;51.462;12.630;2023-02-28T09:11:39;5.55;;;4.75;;
16228;SDS011;8222;51.462;12.630;2023-02-28T09:14:05;4.55;;;4.00;;
16228;SDS011;8222;51.462;12.630;2023-02-28T09:16:30;3.93;;;3.60;;
16228;SDS011;8222;51.462;12.630;2023-02-28T09:18:57;4.18;;;3.72;;
16228;SDS011;8222;51.462;12.630;2023-02-28T09:21:25;4.55;;;3.90;;
16228;SDS011;8222;51.462;12.630;2023-02-28T09:23:51;3.53;;;3.22;;
16228;SDS011;8222;51.462;12.630;2023-02-28T09:26:19;5.40;;;3.17;;
16228;SDS011;8222;51.462;12.630;2023-02-28T09:28:47;3.50;;;3.20;;
16228;SDS011;8222;51.462;12.630;2023-02-28T09:31:14;4.10;;;3.55;;
16228;SDS011;8222;51.462;12.630;2023-02-28T09:33:45;3.75;;;3.20;;
16228;SDS011;8222;51.462;12.630;2023-02-28T09:36:11;4.28;;;3.88;;
16228;SDS011;8222;51.462;12.630;2023-02-28T09:38:39;4.50;;;3.63;;
16228;SDS011;8222;51.462;12.630;2023-02-28T09:41:15;5.03;;;3.67;;
16228;SDS011;8222;51.462;12.630;2023-02-28T09:43:45;5.60;;;4.00;;
16228;SDS011;8222;51.462;12.630;2023-02-28T09:46:29;4.78;;;3.55;;
16228;SDS011;8222;51.462;12.630;2023-02-28T09:49:19;4.10;;;3.65;;
16228;SDS011;8222;51.462;12.630;2023-02-28T09:54:28;4.93;;;3.33;;
16228;SDS011;8222;51.462;12.630;2023-02-28T09:57:07;3.33;;;3.03;;
16228;SDS011;8222;51.462;12.630;2023-02-28T10:09:46;3.72;;;3.00;;
16228;SDS011;8222;51.462;12.630;2023-02-28T10:12:17;4.17;;;2.87;;
16228;SDS011;8222;51.462;12.630;2023-02-28T10:14:45;4.35;;;3.58;;
16228;SDS011;8222;51.462;12.630;2023-02-28T10:17:15;4.00;;;3.47;;
16228;SDS011;8222;51.462;12.630;2023-02-28T10:20:03;4.00;;;3.60;;
16228;SDS011;8222;51.462;12.630;2023-02-28T10:22:34;3.50;;;3.20;;
16228;SDS011;8222;51.462;12.630;2023-02-28T10:25:19;4.18;;;3.70;;
16228;SDS011;8222;51.462;12.630;2023-02-28T10:27:47;3.90;;;3.35;;
16228;SDS011;8222;51.462;12.630;2023-02-28T10:30:12;3.90;;;3.20;;
16228;SDS011;8222;51.462;12.630;2023-02-28T10:32:39;4.97;;;3.60;;
16228;SDS011;8222;51.462;12.630;2023-02-28T10:37:34;3.97;;;3.50;;
16228;SDS011;8222;51.462;12.630;2023-02-28T10:40:04;4.88;;;3.33;;
16228;SDS011;8222;51.462;12.630;2023-02-28T10:42:45;5.53;;;3.50;;
16228;SDS011;8222;51.462;12.630;2023-02-28T10:45:26;4.00;;;3.42;;
16228;SDS011;8222;51.462;12.630;2023-02-28T10:56:23;4.25;;;3.75;;
16228;SDS011;8222;51.462;12.630;2023-02-28T11:01:19;3.70;;;3.40;;
16228;SDS011;8222;51.462;12.630;2023-02-28T11:03:48;4.22;;;3.47;;
16228;SDS011;8222;51.462;12.630;2023-02-28T11:06:20;4.40;;;4.00;;
16228;SDS011;8222;51.462;12.630;2023-02-28T11:08:52;4.53;;;4.13;;
16228;SDS011;8222;51.462;12.630;2023-02-28T11:11:24;7.03;;;4.68;;
16228;SDS011;8222;51.462;12.630;2023-02-28T11:13:54;4.35;;;3.95;;
16228;SDS011;8222;51.462;12.630;2023-02-28T11:16:22;5.78;;;4.28;;
16228;SDS011;8222;51.462;12.630;2023-02-28T11:18:59;4.97;;;4.50;;
16228;SDS011;8222;51.462;12.630;2023-02-28T11:21:31;5.68;;;5.03;;
16228;SDS011;8222;51.462;12.630;2023-02-28T11:24:12;4.70;;;4.30;;
16228;SDS011;8222;51.462;12.630;2023-02-28T11:26:45;5.05;;;4.55;;
16228;SDS011;8222;51.462;12.630;2023-02-28T11:29:29;6.22;;;5.38;;
16228;SDS011;8222;51.462;12.630;2023-02-28T11:34:34;5.75;;;4.63;;
16228;SDS011;8222;51.462;12.630;2023-02-28T11:37:02;5.75;;;5.03;;
16228;SDS011;8222;51.462;12.630;2023-02-28T11:39:30;5.22;;;4.72;;
16228;SDS011;8222;51.462;12.630;2023-02-28T12:07:39;5.45;;;4.95;;
16228;SDS011;8222;51.462;12.630;2023-02-28T12:10:42;5.90;;;5.20;;
16228;SDS011;8222;51.462;12.630;2023-02-28T12:27:01;6.30;;;4.67;;
16228;SDS011;8222;51.462;12.630;2023-02-28T12:29:32;5.23;;;4.70;;
16228;SDS011;8222;51.462;12.630;2023-02-28T12:32:06;5.55;;;4.75;;
16228;SDS011;8222;51.462;12.630;2023-02-28T12:34:47;6.15;;;5.55;;
16228;SDS011;8222;51.462;12.630;2023-02-28T12:37:17;6.03;;;5.53;;
16228;SDS011;8222;51.462;12.630;2023-02-28T12:39:51;7.70;;;6.65;;
16228;SDS011;8222;51.462;12.630;2023-02-28T12:42:32;5.75;;;5.20;;
16228;SDS011;8222;51.462;12.630;2023-02-28T12:47:34;6.50;;;5.43;;
16228;SDS011;8222;51.462;12.630;2023-02-28T12:50:02;5.83;;;5.23;;
16228;SDS011;8222;51.462;12.630;2023-02-28T13:07:32;6.43;;;5.30;;
16228;SDS011;8222;51.462;12.630;2023-02-28T13:10:22;6.55;;;5.50;;
16228;SDS011;8222;51.462;12.630;2023-02-28T13:12:51;15.15;;;11.27;;
16228;SDS011;8222;51.462;12.630;2023-02-28T13:17:52;5.95;;;5.35;;
16228;SDS011;8222;51.462;12.630;2023-02-28T13:20:21;6.60;;;5.90;;
16228;SDS011;8222;51.462;12.630;2023-02-28T13:22:50;6.10;;;5.43;;
16228;SDS011;8222;51.462;12.630;2023-02-28T13:28:02;6.00;;;5.40;;
16228;SDS011;8222;51.462;12.630;2023-02-28T13:33:27;7.80;;;6.10;;
16228;SDS011;8222;51.462;12.630;2023-02-28T13:38:54;9.27;;;7.68;;
16228;SDS011;8222;51.462;12.630;2023-02-28T13:52:12;6.63;;;6.03;;
16228;SDS011;8222;51.462;12.630;2023-02-28T14:11:38;6.82;;;6.22;;
16228;SDS011;8222;51.462;12.630;2023-02-28T14:14:06;5.05;;;4.55;;
16228;SDS011;8222;51.462;12.630;2023-02-28T14:16:40;6.57;;;5.68;;
16228;SDS011;8222;51.462;12.630;2023-02-28T14:19:28;6.57;;;5.80;;
16228;SDS011;8222;51.462;12.630;2023-02-28T14:30:14;6.67;;;6.07;;
16228;SDS011;8222;51.462;12.630;2023-02-28T14:33:01;7.53;;;6.82;;
16228;SDS011;8222;51.462;12.630;2023-02-28T14:35:57;7.35;;;6.65;;
16228;SDS011;8222;51.462;12.630;2023-02-28T14:38:33;7.57;;;6.45;;
16228;SDS011;8222;51.462;12.630;2023-02-28T14:41:11;6.72;;;5.80;;
16228;SDS011;8222;51.462;12.630;2023-02-28T14:44:13;8.67;;;7.77;;
16228;SDS011;8222;51.462;12.630;2023-02-28T14:46:39;7.85;;;6.68;;
16228;SDS011;8222;51.462;12.630;2023-02-28T14:49:09;6.20;;;5.57;;
16228;SDS011;8222;51.462;12.630;2023-02-28T14:51:42;7.63;;;6.93;;
16228;SDS011;8222;51.462;12.630;2023-02-28T14:54:12;8.45;;;7.68;;
16228;SDS011;8222;51.462;12.630;2023-02-28T14:56:47;6.77;;;6.17;;
16228;SDS011;8222;51.462;12.630;2023-02-28T14:59:33;6.38;;;5.78;;
16228;SDS011;8222;51.462;12.630;2023-02-28T15:02:14;7.77;;;7.00;;
16228;SDS011;8222;51.462;12.630;2023-02-28T15:05:00;6.78;;;6.10;;
16228;SDS011;8222;51.462;12.630;2023-02-28T15:07:42;6.53;;;5.93;;
16228;SDS011;8222;51.462;12.630;2023-02-28T15:10:30;6.55;;;5.95;;
16228;SDS011;8222;51.462;12.630;2023-02-28T15:12:57;6.75;;;6.15;;
16228;SDS011;8222;51.462;12.630;2023-02-28T15:18:22;6.88;;;6.18;;
16228;SDS011;8222;51.462;12.630;2023-02-28T15:20:52;6.40;;;5.80;;
16228;SDS011;8222;51.462;12.630;2023-02-28T15:23:19;8.75;;;7.55;;
16228;SDS011;8222;51.462;12.630;2023-02-28T15:25:46;7.80;;;6.70;;
16228;SDS011;8222;51.462;12.630;2023-02-28T15:28:14;6.55;;;5.93;;
16228;SDS011;8222;51.462;12.630;2023-02-28T15:30:53;6.55;;;5.90;;
16228;SDS011;8222;51.462;12.630;2023-02-28T15:33:28;7.05;;;6.10;;
16228;SDS011;8222;51.462;12.630;2023-02-28T15:38:53;6.33;;;5.73;;
16228;SDS011;8222;51.462;12.630;2023-02-28T15:41:25;6.90;;;6.20;;
16228;SDS011;8222;51.462;12.630;2023-02-28T15:47:02;7.22;;;6.50;;
16228;SDS011;8222;51.462;12.630;2023-02-28T15:52:17;6.70;;;5.78;;
16228;SDS011;8222;51.462;12.630;2023-02-28T15:54:46;7.10;;;6.40;;
16228;SDS011;8222;51.462;12.630;2023-02-28T15:57:13;18.52;;;14.63;;
16228;SDS011;8222;51.462;12.630;2023-02-28T15:59:50;14.02;;;11.63;;
16228;SDS011;8222;51.462;12.630;2023-02-28T16:02:22;6.45;;;5.85;;
16228;SDS011;8222;51.462;12.630;2023-02-28T16:07:37;19.90;;;13.30;;
16228;SDS011;8222;51.462;12.630;2023-02-28T16:10:04;13.60;;;10.20;;
16228;SDS011;8222;51.462;12.630;2023-02-28T16:12:32;10.02;;;8.95;;
16228;SDS011;8222;51.462;12.630;2023-02-28T16:15:01;8.88;;;7.88;;
16228;SDS011;8222;51.462;12.630;2023-02-28T16:17:37;7.43;;;6.35;;
16228;SDS011;8222;51.462;12.630;2023-02-28T16:20:14;24.70;;;19.17;;
16228;SDS011;8222;51.462;12.630;2023-02-28T16:22:48;8.95;;;8.00;;
16228;SDS011;8222;51.462;12.630;2023-02-28T16:25:14;16.77;;;13.75;;
16228;SDS011;8222;51.462;12.630;2023-02-28T16:27:41;7.32;;;6.13;;
16228;SDS011;8222;51.462;12.630;2023-02-28T16:30:15;9.10;;;8.20;;
16228;SDS011;8222;51.462;12.630;2023-02-28T16:32:50;8.10;;;7.30;;
16228;SDS011;8222;51.462;12.630;2023-02-28T16:35:18;14.03;;;9.30;;
16228;SDS011;8222;51.462;12.630;2023-02-28T16:37:44;11.00;;;9.27;;
16228;SDS011;8222;51.462;12.630;2023-02-28T16:40:15;9.60;;;7.78;;
16228;SDS011;8222;51.462;12.630;2023-02-28T16:42:47;31.40;;;21.10;;
16228;SDS011;8222;51.462;12.630;2023-02-28T16:45:18;9.47;;;8.13;;
16228;SDS011;8222;51.462;12.630;2023-02-28T16:47:49;9.98;;;8.48;;
16228;SDS011;8222;51.462;12.630;2023-02-28T16:50:19;8.07;;;7.28;;
16228;SDS011;8222;51.462;12.630;2023-02-28T16:52:49;9.85;;;8.30;;
16228;SDS011;8222;51.462;12.630;2023-02-28T16:55:17;9.60;;;8.60;;
16228;SDS011;8222;51.462;12.630;2023-02-28T16:57:43;8.95;;;7.95;;
16228;SDS011;8222;51.462;12.630;2023-02-28T17:00:12;8.55;;;6.80;;
16228;SDS011;8222;51.462;12.630;2023-02-28T17:02:39;7.95;;;7.15;;
16228;SDS011;8222;51.462;12.630;2023-02-28T17:05:05;8.60;;;6.63;;
16228;SDS011;8222;51.462;12.630;2023-02-28T17:07:31;8.00;;;7.20;;
16228;SDS011;8222;51.462;12.630;2023-02-28T17:09:59;10.15;;;8.40;;
16228;SDS011;8222;51.462;12.630;2023-02-28T17:12:33;8.47;;;6.23;;
16228;SDS011;8222;51.462;12.630;2023-02-28T17:14:59;7.53;;;6.67;;
16228;SDS011;8222;51.462;12.630;2023-02-28T17:17:24;10.95;;;8.55;;
16228;SDS011;8222;51.462;12.630;2023-02-28T17:19:50;10.25;;;9.15;;
16228;SDS011;8222;51.462;12.630;2023-02-28T17:22:16;9.13;;;8.23;;
16228;SDS011;8222;51.462;12.630;2023-02-28T17:24:42;9.07;;;8.17;;
16228;SDS011;8222;51.462;12.630;2023-02-28T17:27:09;8.73;;;7.90;;
16228;SDS011;8222;51.462;12.630;2023-02-28T17:29:38;9.20;;;8.02;;
16228;SDS011;8222;51.462;12.630;2023-02-28T17:32:04;10.27;;;9.27;;
16228;SDS011;8222;51.462;12.630;2023-02-28T17:34:33;9.40;;;8.20;;
16228;SDS011;8222;51.462;12.630;2023-02-28T17:37:02;9.52;;;8.55;;
16228;SDS011;8222;51.462;12.630;2023-02-28T17:39:29;9.95;;;8.35;;
16228;SDS011;8222;51.462;12.630;2023-02-28T17:41:56;8.15;;;7.00;;
16228;SDS011;8222;51.462;12.630;2023-02-28T17:44:22;11.93;;;10.82;;
16228;SDS011;8222;51.462;12.630;2023-02-28T17:46:49;9.52;;;8.63;;
16228;SDS011;8222;51.462;12.630;2023-02-28T17:49:15;10.43;;;8.82;;
16228;SDS011;8222;51.462;12.630;2023-02-28T17:51:43;9.70;;;8.70;;
16228;SDS011;8222;51.462;12.630;2023-02-28T17:54:09;10.18;;;9.15;;
16228;SDS011;8222;51.462;12.630;2023-02-28T17:56:35;10.45;;;9.45;;
16228;SDS011;8222;51.462;12.630;2023-02-28T17:59:01;12.55;;;9.13;;
16228;SDS011;8222;51.462;12.630;2023-02-28T18:01:27;10.32;;;8.68;;
16228;SDS011;8222;51.462;12.630;2023-02-28T18:03:53;8.88;;;7.97;;
16228;SDS011;8222;51.462;12.630;2023-02-28T18:06:21;12.38;;;11.07;;
16228;SDS011;8222;51.462;12.630;2023-02-28T18:08:49;9.82;;;8.82;;
16228;SDS011;8222;51.462;12.630;2023-02-28T18:11:18;11.65;;;10.40;;
16228;SDS011;8222;51.462;12.630;2023-02-28T18:13:45;30.60;;;21.65;;